sensor_id;sensor_type;location;lat;lon;timestamp;P1;durP1;ratioP1;P2;durP2;ratioP2
83119;SDS011;73001;51.784;4.660;2024-02-14T00:02:07;9.76;;;9.76;;
83119;SDS011;73001;51.784;4.660;2024-02-14T00:04:32;9.76;;;9.76;;
83119;SDS011;73001;51.784;4.660;2024-02-14T00:06:58;9.65;;;9.65;;
83119;SDS011;73001;51.784;4.660;2024-02-14T00:09:23;9.93;;;9.93;;
83119;SDS011;73001;51.784;4.660;2024-02-14T00:11:49;10.27;;;10.27;;
83119;SDS011;73001;51.784;4.660;2024-02-14T00:14:14;10.36;;;10.36;;
83119;SDS011;73001;51.784;4.660;2024-02-14T00:16:40;10.47;;;10.47;;
83119;SDS011;73001;51.784;4.660;2024-02-14T00:19:06;10.21;;;10.21;;
83119;SDS011;73001;51.784;4.660;2024-02-14T00:21:32;9.80;;;9.80;;
83119;SDS011;73001;51.784;4.660;2024-02-14T00:23:59;9.83;;;9.83;;
83119;SDS011;73001;51.784;4.660;2024-02-14T00:26:26;9.86;;;9.86;;
83119;SDS011;73001;51.784;4.660;2024-02-14T00:28:52;9.88;;;9.88;;
83119;SDS011;73001;51.784;4.660;2024-02-14T00:31:18;10.08;;;10.08;;
83119;SDS011;73001;51.784;4.660;2024-02-14T00:33:43;9.84;;;9.84;;
83119;SDS011;73001;51.784;4.660;2024-02-14T00:36:11;9.92;;;9.92;;
83119;SDS011;73001;51.784;4.660;2024-02-14T00:38:36;9.96;;;9.96;;
83119;SDS011;73001;51.784;4.660;2024-02-14T00:41:02;10.30;;;10.30;;
83119;SDS011;73001;51.784;4.660;2024-02-14T00:43:28;10.85;;;10.85;;
83119;SDS011;73001;51.784;4.660;2024-02-14T00:45:53;10.62;;;10.62;;
83119;SDS011;73001;51.784;4.660;2024-02-14T00:48:21;10.21;;;10.21;;
83119;SDS011;73001;51.784;4.660;2024-02-14T00:50:47;10.86;;;10.86;;
83119;SDS011;73001;51.784;4.660;2024-02-14T00:53:13;10.49;;;10.49;;
83119;SDS011;73001;51.784;4.660;2024-02-14T00:55:39;10.20;;;10.20;;
83119;SDS011;73001;51.784;4.660;2024-02-14T00:58:04;10.33;;;10.33;;
83119;SDS011;73001;51.784;4.660;2024-02-14T01:00:30;10.72;;;10.72;;
83119;SDS011;73001;51.784;4.660;2024-02-14T01:02:57;11.18;;;11.18;;
83119;SDS011;73001;51.784;4.660;2024-02-14T01:05:23;11.01;;;11.01;;
83119;SDS011;73001;51.784;4.660;2024-02-14T01:07:49;10.54;;;10.54;;
83119;SDS011;73001;51.784;4.660;2024-02-14T01:10:14;10.28;;;10.28;;
83119;SDS011;73001;51.784;4.660;2024-02-14T01:12:40;10.11;;;10.11;;
83119;SDS011;73001;51.784;4.660;2024-02-14T01:15:06;9.81;;;9.81;;
83119;SDS011;73001;51.784;4.660;2024-02-14T01:17:31;9.86;;;9.86;;
83119;SDS011;73001;51.784;4.660;2024-02-14T01:19:57;9.50;;;9.50;;
83119;SDS011;73001;51.784;4.660;2024-02-14T01:22:23;9.94;;;9.94;;
83119;SDS011;73001;51.784;4.660;2024-02-14T01:24:49;9.71;;;9.71;;
83119;SDS011;73001;51.784;4.660;2024-02-14T01:27:14;9.99;;;9.99;;
83119;SDS011;73001;51.784;4.660;2024-02-14T01:29:41;9.42;;;9.42;;
83119;SDS011;73001;51.784;4.660;2024-02-14T01:32:07;9.49;;;9.49;;
83119;SDS011;73001;51.784;4.660;2024-02-14T01:34:34;9.93;;;9.93;;
83119;SDS011;73001;51.784;4.660;2024-02-14T01:37:00;10.11;;;10.11;;
83119;SDS011;73001;51.784;4.660;2024-02-14T01:39:25;9.96;;;9.96;;
83119;SDS011;73001;51.784;4.660;2024-02-14T01:41:51;9.97;;;9.97;;
83119;SDS011;73001;51.784;4.660;2024-02-14T01:44:17;10.12;;;10.12;;
83119;SDS011;73001;51.784;4.660;2024-02-14T01:46:43;10.45;;;10.45;;
83119;SDS011;73001;51.784;4.660;2024-02-14T01:49:12;10.88;;;10.88;;
83119;SDS011;73001;51.784;4.660;2024-02-14T01:51:42;10.99;;;10.99;;
83119;SDS011;73001;51.784;4.660;2024-02-14T01:54:12;10.91;;;10.91;;
83119;SDS011;73001;51.784;4.660;2024-02-14T01:56:42;10.77;;;10.77;;
83119;SDS011;73001;51.784;4.660;2024-02-14T01:59:09;11.51;;;11.51;;
83119;SDS011;73001;51.784;4.660;2024-02-14T02:01:35;11.83;;;11.83;;
83119;SDS011;73001;51.784;4.660;2024-02-14T02:04:01;11.87;;;11.87;;
83119;SDS011;73001;51.784;4.660;2024-02-14T02:06:26;11.72;;;11.72;;
83119;SDS011;73001;51.784;4.660;2024-02-14T02:08:52;11.64;;;11.64;;
83119;SDS011;73001;51.784;4.660;2024-02-14T02:11:18;11.84;;;11.84;;
83119;SDS011;73001;51.784;4.660;2024-02-14T02:13:43;11.92;;;11.92;;
83119;SDS011;73001;51.784;4.660;2024-02-14T02:16:09;11.74;;;11.74;;
83119;SDS011;73001;51.784;4.660;2024-02-14T02:18:35;11.75;;;11.75;;
83119;SDS011;73001;51.784;4.660;2024-02-14T02:21:00;11.66;;;11.66;;
83119;SDS011;73001;51.784;4.660;2024-02-14T02:23:32;11.61;;;11.61;;
83119;SDS011;73001;51.784;4.660;2024-02-14T02:26:01;11.70;;;11.70;;
83119;SDS011;73001;51.784;4.660;2024-02-14T02:28:27;11.57;;;11.57;;
83119;SDS011;73001;51.784;4.660;2024-02-14T02:30:52;11.69;;;11.69;;
83119;SDS011;73001;51.784;4.660;2024-02-14T02:33:20;11.94;;;11.94;;
83119;SDS011;73001;51.784;4.660;2024-02-14T02:35:47;11.43;;;11.43;;
83119;SDS011;73001;51.784;4.660;2024-02-14T02:38:15;10.85;;;10.85;;
83119;SDS011;73001;51.784;4.660;2024-02-14T02:40:42;11.19;;;11.19;;
83119;SDS011;73001;51.784;4.660;2024-02-14T02:43:07;11.34;;;11.34;;
83119;SDS011;73001;51.784;4.660;2024-02-14T02:45:33;11.48;;;11.48;;
83119;SDS011;73001;51.784;4.660;2024-02-14T02:47:59;12.39;;;12.39;;
83119;SDS011;73001;51.784;4.660;2024-02-14T02:50:25;12.29;;;12.29;;
83119;SDS011;73001;51.784;4.660;2024-02-14T02:52:51;12.27;;;12.27;;
83119;SDS011;73001;51.784;4.660;2024-02-14T02:55:16;12.47;;;12.47;;
83119;SDS011;73001;51.784;4.660;2024-02-14T02:57:43;12.75;;;12.75;;
83119;SDS011;73001;51.784;4.660;2024-02-14T03:00:09;12.21;;;12.21;;
83119;SDS011;73001;51.784;4.660;2024-02-14T03:02:36;11.93;;;11.93;;
83119;SDS011;73001;51.784;4.660;2024-02-14T03:05:06;11.26;;;11.26;;
83119;SDS011;73001;51.784;4.660;2024-02-14T03:07:35;11.98;;;11.98;;
83119;SDS011;73001;51.784;4.660;2024-02-14T03:10:02;12.58;;;12.58;;
83119;SDS011;73001;51.784;4.660;2024-02-14T03:12:28;11.96;;;11.96;;
83119;SDS011;73001;51.784;4.660;2024-02-14T03:14:56;11.99;;;11.99;;
83119;SDS011;73001;51.784;4.660;2024-02-14T03:17:23;11.56;;;11.56;;
83119;SDS011;73001;51.784;4.660;2024-02-14T03:19:48;11.80;;;11.80;;
83119;SDS011;73001;51.784;4.660;2024-02-14T03:22:17;11.60;;;11.60;;
83119;SDS011;73001;51.784;4.660;2024-02-14T03:24:44;11.25;;;11.25;;
83119;SDS011;73001;51.784;4.660;2024-02-14T03:27:12;10.77;;;10.77;;
83119;SDS011;73001;51.784;4.660;2024-02-14T03:29:38;10.79;;;10.79;;
83119;SDS011;73001;51.784;4.660;2024-02-14T03:32:07;10.37;;;10.37;;
83119;SDS011;73001;51.784;4.660;2024-02-14T03:34:33;10.16;;;10.16;;
83119;SDS011;73001;51.784;4.660;2024-02-14T03:37:00;9.68;;;9.68;;
83119;SDS011;73001;51.784;4.660;2024-02-14T03:39:28;9.73;;;9.73;;
83119;SDS011;73001;51.784;4.660;2024-02-14T03:41:54;9.36;;;9.36;;
83119;SDS011;73001;51.784;4.660;2024-02-14T03:44:21;9.10;;;9.10;;
83119;SDS011;73001;51.784;4.660;2024-02-14T03:46:48;9.00;;;9.00;;
83119;SDS011;73001;51.784;4.660;2024-02-14T03:49:13;8.89;;;8.89;;
83119;SDS011;73001;51.784;4.660;2024-02-14T03:51:39;8.33;;;8.33;;
83119;SDS011;73001;51.784;4.660;2024-02-14T03:54:05;8.68;;;8.68;;
83119;SDS011;73001;51.784;4.660;2024-02-14T03:56:30;8.26;;;8.26;;
83119;SDS011;73001;51.784;4.660;2024-02-14T03:58:58;8.32;;;8.32;;
83119;SDS011;73001;51.784;4.660;2024-02-14T04:01:24;8.83;;;8.83;;
83119;SDS011;73001;51.784;4.660;2024-02-14T04:03:50;8.37;;;8.37;;
83119;SDS011;73001;51.784;4.660;2024-02-14T04:06:15;9.07;;;9.07;;
83119;SDS011;73001;51.784;4.660;2024-02-14T04:08:41;9.51;;;9.51;;
83119;SDS011;73001;51.784;4.660;2024-02-14T04:11:07;9.72;;;9.72;;
83119;SDS011;73001;51.784;4.660;2024-02-14T04:13:32;9.63;;;9.63;;
83119;SDS011;73001;51.784;4.660;2024-02-14T04:15:58;9.95;;;9.95;;
83119;SDS011;73001;51.784;4.660;2024-02-14T04:18:23;9.68;;;9.68;;
83119;SDS011;73001;51.784;4.660;2024-02-14T04:20:49;9.10;;;9.10;;
83119;SDS011;73001;51.784;4.660;2024-02-14T04:23:14;9.41;;;9.41;;
83119;SDS011;73001;51.784;4.660;2024-02-14T04:25:40;9.48;;;9.48;;
83119;SDS011;73001;51.784;4.660;2024-02-14T04:28:06;9.33;;;9.33;;
83119;SDS011;73001;51.784;4.660;2024-02-14T04:30:32;9.22;;;9.22;;
83119;SDS011;73001;51.784;4.660;2024-02-14T04:32:57;8.90;;;8.90;;
83119;SDS011;73001;51.784;4.660;2024-02-14T04:35:23;8.91;;;8.91;;
83119;SDS011;73001;51.784;4.660;2024-02-14T04:37:48;8.85;;;8.85;;
83119;SDS011;73001;51.784;4.660;2024-02-14T04:40:14;8.79;;;8.79;;
83119;SDS011;73001;51.784;4.660;2024-02-14T04:42:43;8.45;;;8.45;;
83119;SDS011;73001;51.784;4.660;2024-02-14T04:45:09;9.29;;;9.29;;
83119;SDS011;73001;51.784;4.660;2024-02-14T04:47:35;8.81;;;8.81;;
83119;SDS011;73001;51.784;4.660;2024-02-14T04:50:01;9.15;;;9.15;;
83119;SDS011;73001;51.784;4.660;2024-02-14T04:52:29;9.46;;;9.46;;
83119;SDS011;73001;51.784;4.660;2024-02-14T04:54:55;9.89;;;9.89;;
83119;SDS011;73001;51.784;4.660;2024-02-14T04:57:21;9.50;;;9.50;;
83119;SDS011;73001;51.784;4.660;2024-02-14T04:59:47;9.40;;;9.40;;
83119;SDS011;73001;51.784;4.660;2024-02-14T05:02:13;9.53;;;9.53;;
83119;SDS011;73001;51.784;4.660;2024-02-14T05:04:40;10.22;;;10.22;;
83119;SDS011;73001;51.784;4.660;2024-02-14T05:07:05;10.09;;;10.09;;
83119;SDS011;73001;51.784;4.660;2024-02-14T05:09:31;10.29;;;10.29;;
83119;SDS011;73001;51.784;4.660;2024-02-14T05:11:57;11.00;;;11.00;;
83119;SDS011;73001;51.784;4.660;2024-02-14T05:14:23;11.12;;;11.12;;
83119;SDS011;73001;51.784;4.660;2024-02-14T05:16:48;11.23;;;11.23;;
83119;SDS011;73001;51.784;4.660;2024-02-14T05:19:14;12.02;;;12.02;;
83119;SDS011;73001;51.784;4.660;2024-02-14T05:21:39;11.47;;;11.47;;
83119;SDS011;73001;51.784;4.660;2024-02-14T05:24:05;11.18;;;11.18;;
83119;SDS011;73001;51.784;4.660;2024-02-14T05:26:31;10.81;;;10.81;;
83119;SDS011;73001;51.784;4.660;2024-02-14T05:28:57;11.15;;;11.15;;
83119;SDS011;73001;51.784;4.660;2024-02-14T05:31:23;10.85;;;10.85;;
83119;SDS011;73001;51.784;4.660;2024-02-14T05:33:49;11.33;;;11.33;;
83119;SDS011;73001;51.784;4.660;2024-02-14T05:36:15;10.79;;;10.79;;
83119;SDS011;73001;51.784;4.660;2024-02-14T05:38:40;11.70;;;11.70;;
83119;SDS011;73001;51.784;4.660;2024-02-14T05:41:06;11.50;;;11.50;;
83119;SDS011;73001;51.784;4.660;2024-02-14T05:43:33;11.69;;;11.69;;
83119;SDS011;73001;51.784;4.660;2024-02-14T05:45:59;12.15;;;12.15;;
83119;SDS011;73001;51.784;4.660;2024-02-14T05:48:25;12.19;;;12.19;;
83119;SDS011;73001;51.784;4.660;2024-02-14T05:50:51;12.43;;;12.43;;
83119;SDS011;73001;51.784;4.660;2024-02-14T05:53:16;13.06;;;13.06;;
83119;SDS011;73001;51.784;4.660;2024-02-14T05:55:42;13.76;;;13.76;;
83119;SDS011;73001;51.784;4.660;2024-02-14T05:58:07;13.53;;;13.53;;
83119;SDS011;73001;51.784;4.660;2024-02-14T06:00:33;13.65;;;13.65;;
83119;SDS011;73001;51.784;4.660;2024-02-14T06:02:59;13.90;;;13.90;;
83119;SDS011;73001;51.784;4.660;2024-02-14T06:05:24;13.50;;;13.50;;
83119;SDS011;73001;51.784;4.660;2024-02-14T06:07:49;13.51;;;13.51;;
83119;SDS011;73001;51.784;4.660;2024-02-14T06:10:15;13.97;;;13.97;;
83119;SDS011;73001;51.784;4.660;2024-02-14T06:12:41;14.28;;;14.28;;
83119;SDS011;73001;51.784;4.660;2024-02-14T06:15:08;14.04;;;14.04;;
83119;SDS011;73001;51.784;4.660;2024-02-14T06:17:34;14.03;;;14.03;;
83119;SDS011;73001;51.784;4.660;2024-02-14T06:19:59;14.14;;;14.14;;
83119;SDS011;73001;51.784;4.660;2024-02-14T06:22:30;14.10;;;14.10;;
83119;SDS011;73001;51.784;4.660;2024-02-14T06:24:57;14.06;;;14.06;;
83119;SDS011;73001;51.784;4.660;2024-02-14T06:27:22;13.61;;;13.61;;
83119;SDS011;73001;51.784;4.660;2024-02-14T06:29:47;13.43;;;13.43;;
83119;SDS011;73001;51.784;4.660;2024-02-14T06:32:13;13.41;;;13.41;;
83119;SDS011;73001;51.784;4.660;2024-02-14T06:34:39;12.85;;;12.85;;
83119;SDS011;73001;51.784;4.660;2024-02-14T06:37:05;13.07;;;13.07;;
83119;SDS011;73001;51.784;4.660;2024-02-14T06:39:30;12.57;;;12.57;;
83119;SDS011;73001;51.784;4.660;2024-02-14T06:41:56;13.05;;;13.05;;
83119;SDS011;73001;51.784;4.660;2024-02-14T06:44:26;13.27;;;13.27;;
83119;SDS011;73001;51.784;4.660;2024-02-14T06:46:52;12.73;;;12.73;;
83119;SDS011;73001;51.784;4.660;2024-02-14T06:49:17;12.80;;;12.80;;
83119;SDS011;73001;51.784;4.660;2024-02-14T06:51:43;12.39;;;12.39;;
83119;SDS011;73001;51.784;4.660;2024-02-14T06:54:10;12.20;;;12.20;;
83119;SDS011;73001;51.784;4.660;2024-02-14T06:56:37;12.18;;;12.18;;
83119;SDS011;73001;51.784;4.660;2024-02-14T06:59:03;11.85;;;11.85;;
83119;SDS011;73001;51.784;4.660;2024-02-14T07:01:29;12.05;;;12.05;;
83119;SDS011;73001;51.784;4.660;2024-02-14T07:03:56;12.86;;;12.86;;
83119;SDS011;73001;51.784;4.660;2024-02-14T07:06:23;13.17;;;13.17;;
83119;SDS011;73001;51.784;4.660;2024-02-14T07:08:51;13.61;;;13.61;;
83119;SDS011;73001;51.784;4.660;2024-02-14T07:11:17;14.10;;;14.10;;
83119;SDS011;73001;51.784;4.660;2024-02-14T07:13:43;13.97;;;13.97;;
83119;SDS011;73001;51.784;4.660;2024-02-14T07:16:08;13.64;;;13.64;;
83119;SDS011;73001;51.784;4.660;2024-02-14T07:18:34;14.62;;;14.62;;
83119;SDS011;73001;51.784;4.660;2024-02-14T07:21:00;14.07;;;14.07;;
83119;SDS011;73001;51.784;4.660;2024-02-14T07:23:30;13.98;;;13.98;;
83119;SDS011;73001;51.784;4.660;2024-02-14T07:25:57;13.95;;;13.95;;
83119;SDS011;73001;51.784;4.660;2024-02-14T07:28:23;14.45;;;14.45;;
83119;SDS011;73001;51.784;4.660;2024-02-14T07:30:48;14.45;;;14.45;;
83119;SDS011;73001;51.784;4.660;2024-02-14T07:33:14;14.16;;;14.16;;
83119;SDS011;73001;51.784;4.660;2024-02-14T07:35:40;14.43;;;14.43;;
83119;SDS011;73001;51.784;4.660;2024-02-14T07:38:07;13.94;;;13.94;;
83119;SDS011;73001;51.784;4.660;2024-02-14T07:40:33;13.88;;;13.88;;
83119;SDS011;73001;51.784;4.660;2024-02-14T07:42:59;13.76;;;13.76;;
83119;SDS011;73001;51.784;4.660;2024-02-14T07:45:25;13.27;;;13.27;;
83119;SDS011;73001;51.784;4.660;2024-02-14T07:47:51;13.63;;;13.63;;
83119;SDS011;73001;51.784;4.660;2024-02-14T07:50:17;12.22;;;12.22;;
83119;SDS011;73001;51.784;4.660;2024-02-14T07:52:46;12.07;;;12.07;;
83119;SDS011;73001;51.784;4.660;2024-02-14T07:55:12;12.37;;;12.37;;
83119;SDS011;73001;51.784;4.660;2024-02-14T07:57:39;12.79;;;12.79;;
83119;SDS011;73001;51.784;4.660;2024-02-14T08:00:05;13.26;;;13.26;;
83119;SDS011;73001;51.784;4.660;2024-02-14T08:02:33;13.02;;;13.02;;
83119;SDS011;73001;51.784;4.660;2024-02-14T08:04:59;13.38;;;13.38;;
83119;SDS011;73001;51.784;4.660;2024-02-14T08:07:25;12.76;;;12.76;;
83119;SDS011;73001;51.784;4.660;2024-02-14T08:09:50;13.37;;;13.37;;
83119;SDS011;73001;51.784;4.660;2024-02-14T08:12:16;12.64;;;12.64;;
83119;SDS011;73001;51.784;4.660;2024-02-14T08:14:42;12.28;;;12.28;;
83119;SDS011;73001;51.784;4.660;2024-02-14T08:17:07;12.87;;;12.87;;
83119;SDS011;73001;51.784;4.660;2024-02-14T08:19:32;12.57;;;12.57;;
83119;SDS011;73001;51.784;4.660;2024-02-14T08:21:58;12.83;;;12.83;;
83119;SDS011;73001;51.784;4.660;2024-02-14T08:24:28;12.77;;;12.77;;
83119;SDS011;73001;51.784;4.660;2024-02-14T08:26:53;12.82;;;12.82;;
83119;SDS011;73001;51.784;4.660;2024-02-14T08:29:19;13.07;;;13.07;;
83119;SDS011;73001;51.784;4.660;2024-02-14T08:31:46;13.42;;;13.42;;
83119;SDS011;73001;51.784;4.660;2024-02-14T08:34:12;13.08;;;13.08;;
83119;SDS011;73001;51.784;4.660;2024-02-14T08:36:37;13.18;;;13.18;;
83119;SDS011;73001;51.784;4.660;2024-02-14T08:39:07;12.62;;;12.62;;
83119;SDS011;73001;51.784;4.660;2024-02-14T08:41:33;13.25;;;13.25;;
83119;SDS011;73001;51.784;4.660;2024-02-14T08:43:58;12.52;;;12.52;;
83119;SDS011;73001;51.784;4.660;2024-02-14T08:46:24;11.98;;;11.98;;
83119;SDS011;73001;51.784;4.660;2024-02-14T08:48:50;11.66;;;11.66;;
83119;SDS011;73001;51.784;4.660;2024-02-14T08:51:17;11.80;;;11.80;;
83119;SDS011;73001;51.784;4.660;2024-02-14T08:53:45;11.21;;;11.21;;
83119;SDS011;73001;51.784;4.660;2024-02-14T08:56:11;11.53;;;11.53;;
83119;SDS011;73001;51.784;4.660;2024-02-14T08:58:36;11.66;;;11.66;;
83119;SDS011;73001;51.784;4.660;2024-02-14T09:01:02;10.78;;;10.78;;
83119;SDS011;73001;51.784;4.660;2024-02-14T09:03:28;10.88;;;10.88;;
83119;SDS011;73001;51.784;4.660;2024-02-14T09:05:55;11.26;;;11.26;;
83119;SDS011;73001;51.784;4.660;2024-02-14T09:08:22;10.53;;;10.53;;
83119;SDS011;73001;51.784;4.660;2024-02-14T09:10:49;10.68;;;10.68;;
83119;SDS011;73001;51.784;4.660;2024-02-14T09:13:15;11.15;;;11.15;;
83119;SDS011;73001;51.784;4.660;2024-02-14T09:15:40;11.14;;;11.14;;
83119;SDS011;73001;51.784;4.660;2024-02-14T09:18:06;11.22;;;11.22;;
83119;SDS011;73001;51.784;4.660;2024-02-14T09:20:31;11.24;;;11.24;;
83119;SDS011;73001;51.784;4.660;2024-02-14T09:22:57;11.15;;;11.15;;
83119;SDS011;73001;51.784;4.660;2024-02-14T09:25:23;10.67;;;10.67;;
83119;SDS011;73001;51.784;4.660;2024-02-14T09:27:50;10.91;;;10.91;;
83119;SDS011;73001;51.784;4.660;2024-02-14T09:30:16;10.29;;;10.29;;
83119;SDS011;73001;51.784;4.660;2024-02-14T09:32:46;10.16;;;10.16;;
83119;SDS011;73001;51.784;4.660;2024-02-14T09:35:12;9.91;;;9.91;;
83119;SDS011;73001;51.784;4.660;2024-02-14T09:37:38;9.67;;;9.67;;
83119;SDS011;73001;51.784;4.660;2024-02-14T09:40:05;9.28;;;9.28;;
83119;SDS011;73001;51.784;4.660;2024-02-14T09:42:40;9.21;;;9.21;;
83119;SDS011;73001;51.784;4.660;2024-02-14T09:45:10;8.90;;;8.90;;
83119;SDS011;73001;51.784;4.660;2024-02-14T09:47:36;9.11;;;9.11;;
83119;SDS011;73001;51.784;4.660;2024-02-14T09:50:04;8.45;;;8.45;;
83119;SDS011;73001;51.784;4.660;2024-02-14T09:52:33;8.27;;;8.27;;
83119;SDS011;73001;51.784;4.660;2024-02-14T09:54:58;8.11;;;8.11;;
83119;SDS011;73001;51.784;4.660;2024-02-14T09:57:28;8.14;;;8.14;;
83119;SDS011;73001;51.784;4.660;2024-02-14T09:59:54;8.68;;;8.68;;
83119;SDS011;73001;51.784;4.660;2024-02-14T10:02:22;8.37;;;8.37;;
83119;SDS011;73001;51.784;4.660;2024-02-14T10:04:47;8.97;;;8.97;;
83119;SDS011;73001;51.784;4.660;2024-02-14T10:07:13;8.26;;;8.26;;
83119;SDS011;73001;51.784;4.660;2024-02-14T10:09:42;8.65;;;8.65;;
83119;SDS011;73001;51.784;4.660;2024-02-14T10:12:08;8.94;;;8.94;;
83119;SDS011;73001;51.784;4.660;2024-02-14T10:14:35;8.39;;;8.39;;
83119;SDS011;73001;51.784;4.660;2024-02-14T10:17:02;8.76;;;8.76;;
83119;SDS011;73001;51.784;4.660;2024-02-14T10:19:29;8.27;;;8.27;;
83119;SDS011;73001;51.784;4.660;2024-02-14T10:21:55;8.10;;;8.10;;
83119;SDS011;73001;51.784;4.660;2024-02-14T10:24:25;8.35;;;8.35;;
83119;SDS011;73001;51.784;4.660;2024-02-14T10:26:56;8.53;;;8.53;;
83119;SDS011;73001;51.784;4.660;2024-02-14T10:29:23;8.16;;;8.16;;
83119;SDS011;73001;51.784;4.660;2024-02-14T10:31:49;8.07;;;8.07;;
83119;SDS011;73001;51.784;4.660;2024-02-14T10:34:15;8.12;;;8.12;;
83119;SDS011;73001;51.784;4.660;2024-02-14T10:36:45;8.42;;;8.42;;
83119;SDS011;73001;51.784;4.660;2024-02-14T10:39:12;8.60;;;8.60;;
83119;SDS011;73001;51.784;4.660;2024-02-14T10:41:40;8.28;;;8.28;;
83119;SDS011;73001;51.784;4.660;2024-02-14T10:44:06;8.33;;;8.33;;
83119;SDS011;73001;51.784;4.660;2024-02-14T10:46:32;8.89;;;8.89;;
83119;SDS011;73001;51.784;4.660;2024-02-14T10:49:02;8.39;;;8.39;;
83119;SDS011;73001;51.784;4.660;2024-02-14T10:51:32;9.09;;;9.09;;
83119;SDS011;73001;51.784;4.660;2024-02-14T10:54:03;9.13;;;9.13;;
83119;SDS011;73001;51.784;4.660;2024-02-14T10:56:35;9.18;;;9.18;;
83119;SDS011;73001;51.784;4.660;2024-02-14T10:59:05;9.73;;;9.73;;
83119;SDS011;73001;51.784;4.660;2024-02-14T11:01:35;9.76;;;9.76;;
83119;SDS011;73001;51.784;4.660;2024-02-14T11:04:02;9.79;;;9.79;;
83119;SDS011;73001;51.784;4.660;2024-02-14T11:06:29;9.86;;;9.86;;
83119;SDS011;73001;51.784;4.660;2024-02-14T11:09:00;9.37;;;9.37;;
83119;SDS011;73001;51.784;4.660;2024-02-14T11:11:32;9.19;;;9.19;;
83119;SDS011;73001;51.784;4.660;2024-02-14T11:13:58;9.20;;;9.20;;
83119;SDS011;73001;51.784;4.660;2024-02-14T11:16:25;9.49;;;9.49;;
83119;SDS011;73001;51.784;4.660;2024-02-14T11:19:07;9.26;;;9.26;;
83119;SDS011;73001;51.784;4.660;2024-02-14T11:21:35;8.70;;;8.70;;
83119;SDS011;73001;51.784;4.660;2024-02-14T11:24:21;8.62;;;8.62;;
83119;SDS011;73001;51.784;4.660;2024-02-14T11:26:54;8.03;;;8.03;;
83119;SDS011;73001;51.784;4.660;2024-02-14T11:29:21;7.83;;;7.83;;
83119;SDS011;73001;51.784;4.660;2024-02-14T11:31:58;7.46;;;7.46;;
83119;SDS011;73001;51.784;4.660;2024-02-14T11:34:25;7.15;;;7.15;;
83119;SDS011;73001;51.784;4.660;2024-02-14T11:36:51;7.23;;;7.23;;
83119;SDS011;73001;51.784;4.660;2024-02-14T11:39:16;6.89;;;6.89;;
83119;SDS011;73001;51.784;4.660;2024-02-14T11:41:42;7.03;;;7.03;;
83119;SDS011;73001;51.784;4.660;2024-02-14T11:44:08;7.04;;;7.04;;
83119;SDS011;73001;51.784;4.660;2024-02-14T11:46:34;7.28;;;7.28;;
83119;SDS011;73001;51.784;4.660;2024-02-14T11:49:02;7.14;;;7.14;;
83119;SDS011;73001;51.784;4.660;2024-02-14T11:51:38;7.33;;;7.33;;
83119;SDS011;73001;51.784;4.660;2024-02-14T11:54:06;7.48;;;7.48;;
83119;SDS011;73001;51.784;4.660;2024-02-14T11:56:37;7.27;;;7.27;;
83119;SDS011;73001;51.784;4.660;2024-02-14T11:59:04;7.35;;;7.35;;
83119;SDS011;73001;51.784;4.660;2024-02-14T12:01:35;7.35;;;7.35;;
83119;SDS011;73001;51.784;4.660;2024-02-14T12:04:02;7.31;;;7.31;;
83119;SDS011;73001;51.784;4.660;2024-02-14T12:06:32;6.58;;;6.58;;
83119;SDS011;73001;51.784;4.660;2024-02-14T12:09:01;6.63;;;6.63;;
83119;SDS011;73001;51.784;4.660;2024-02-14T12:11:37;6.66;;;6.66;;
83119;SDS011;73001;51.784;4.660;2024-02-14T12:14:06;6.07;;;6.07;;
83119;SDS011;73001;51.784;4.660;2024-02-14T12:16:36;6.28;;;6.28;;
83119;SDS011;73001;51.784;4.660;2024-02-14T12:21:40;6.68;;;6.68;;
83119;SDS011;73001;51.784;4.660;2024-02-14T12:24:12;6.26;;;6.26;;
83119;SDS011;73001;51.784;4.660;2024-02-14T12:26:39;6.67;;;6.67;;
83119;SDS011;73001;51.784;4.660;2024-02-14T12:29:06;6.36;;;6.36;;
83119;SDS011;73001;51.784;4.660;2024-02-14T12:31:34;6.79;;;6.79;;
83119;SDS011;73001;51.784;4.660;2024-02-14T12:34:00;6.89;;;6.89;;
83119;SDS011;73001;51.784;4.660;2024-02-14T12:36:29;7.03;;;7.03;;
83119;SDS011;73001;51.784;4.660;2024-02-14T12:38:59;7.21;;;7.21;;
83119;SDS011;73001;51.784;4.660;2024-02-14T12:41:27;7.56;;;7.56;;
83119;SDS011;73001;51.784;4.660;2024-02-14T12:43:55;7.73;;;7.73;;
83119;SDS011;73001;51.784;4.660;2024-02-14T12:46:21;8.19;;;8.19;;
83119;SDS011;73001;51.784;4.660;2024-02-14T12:48:47;8.23;;;8.23;;
83119;SDS011;73001;51.784;4.660;2024-02-14T12:51:13;8.99;;;8.99;;
83119;SDS011;73001;51.784;4.660;2024-02-14T12:53:40;8.62;;;8.62;;
83119;SDS011;73001;51.784;4.660;2024-02-14T12:56:06;8.46;;;8.46;;
83119;SDS011;73001;51.784;4.660;2024-02-14T12:58:32;8.36;;;8.36;;
83119;SDS011;73001;51.784;4.660;2024-02-14T13:00:58;8.39;;;8.39;;
83119;SDS011;73001;51.784;4.660;2024-02-14T13:03:25;8.09;;;8.09;;
83119;SDS011;73001;51.784;4.660;2024-02-14T13:05:51;8.54;;;8.54;;
83119;SDS011;73001;51.784;4.660;2024-02-14T13:08:18;8.01;;;8.01;;
83119;SDS011;73001;51.784;4.660;2024-02-14T13:10:44;8.04;;;8.04;;
83119;SDS011;73001;51.784;4.660;2024-02-14T13:13:09;7.89;;;7.89;;
83119;SDS011;73001;51.784;4.660;2024-02-14T13:15:35;8.06;;;8.06;;
83119;SDS011;73001;51.784;4.660;2024-02-14T13:18:01;7.89;;;7.89;;
83119;SDS011;73001;51.784;4.660;2024-02-14T13:20:28;7.63;;;7.63;;
83119;SDS011;73001;51.784;4.660;2024-02-14T13:22:54;7.46;;;7.46;;
83119;SDS011;73001;51.784;4.660;2024-02-14T13:25:20;6.83;;;6.83;;
83119;SDS011;73001;51.784;4.660;2024-02-14T13:27:46;6.60;;;6.60;;
83119;SDS011;73001;51.784;4.660;2024-02-14T13:30:12;6.66;;;6.66;;
83119;SDS011;73001;51.784;4.660;2024-02-14T13:32:37;6.15;;;6.15;;
83119;SDS011;73001;51.784;4.660;2024-02-14T13:35:03;6.02;;;6.02;;
83119;SDS011;73001;51.784;4.660;2024-02-14T13:37:31;6.05;;;6.05;;
83119;SDS011;73001;51.784;4.660;2024-02-14T13:39:57;5.83;;;5.83;;
83119;SDS011;73001;51.784;4.660;2024-02-14T13:42:22;5.73;;;5.73;;
83119;SDS011;73001;51.784;4.660;2024-02-14T13:44:48;6.11;;;6.11;;
83119;SDS011;73001;51.784;4.660;2024-02-14T13:47:17;5.93;;;5.93;;
83119;SDS011;73001;51.784;4.660;2024-02-14T13:49:46;6.14;;;6.14;;
83119;SDS011;73001;51.784;4.660;2024-02-14T13:52:12;6.10;;;6.10;;
83119;SDS011;73001;51.784;4.660;2024-02-14T13:54:37;6.15;;;6.15;;
83119;SDS011;73001;51.784;4.660;2024-02-14T13:57:03;5.96;;;5.96;;
83119;SDS011;73001;51.784;4.660;2024-02-14T13:59:28;6.10;;;6.10;;
83119;SDS011;73001;51.784;4.660;2024-02-14T14:01:54;6.14;;;6.14;;
83119;SDS011;73001;51.784;4.660;2024-02-14T14:04:20;5.90;;;5.90;;
83119;SDS011;73001;51.784;4.660;2024-02-14T14:06:46;5.93;;;5.93;;
83119;SDS011;73001;51.784;4.660;2024-02-14T14:09:12;5.66;;;5.66;;
83119;SDS011;73001;51.784;4.660;2024-02-14T14:11:38;5.84;;;5.84;;
83119;SDS011;73001;51.784;4.660;2024-02-14T14:14:04;5.26;;;5.26;;
83119;SDS011;73001;51.784;4.660;2024-02-14T14:16:30;4.96;;;4.96;;
83119;SDS011;73001;51.784;4.660;2024-02-14T14:18:58;5.36;;;5.36;;
83119;SDS011;73001;51.784;4.660;2024-02-14T14:21:24;4.55;;;4.55;;
83119;SDS011;73001;51.784;4.660;2024-02-14T14:23:49;4.33;;;4.33;;
83119;SDS011;73001;51.784;4.660;2024-02-14T14:26:15;4.25;;;4.25;;
83119;SDS011;73001;51.784;4.660;2024-02-14T14:28:41;4.28;;;4.28;;
83119;SDS011;73001;51.784;4.660;2024-02-14T14:31:07;4.57;;;4.57;;
83119;SDS011;73001;51.784;4.660;2024-02-14T14:33:36;4.25;;;4.25;;
83119;SDS011;73001;51.784;4.660;2024-02-14T14:36:02;4.29;;;4.29;;